Time;durP1;ratioP1;P1;durP2;ratioP2;P2;SDS_P1;SDS_P2;PMS_P1;PMS_P2;Temp;Humidity;BMP_temperature;BMP_pressure;BME280_temperature;BME280_humidity;BME280_pressure;Samples;Min_cycle;Max_cycle;Signal;HPM_P1;HPM_P2
2022/10/09 00:01:05;;;;;;;69.70;62.22;;;13.70;99.90;;;;;;5014822;28;20037;-67
2022/10/09 00:03:32;;;;;;;70.78;60.05;;;13.70;99.90;;;;;;5015128;28;20041;-66
2022/10/09 00:05:58;;;;;;;72.60;64.55;;;13.70;99.90;;;;;;5015621;28;20452;-67
2022/10/09 00:08:25;;;;;;;71.57;60.67;;;13.70;99.90;;;;;;5017024;28;20032;-67
2022/10/09 00:10:52;;;;;;;71.63;61.60;;;13.70;99.90;;;;;;5015222;28;20100;-67
2022/10/09 00:13:18;;;;;;;74.57;61.88;;;13.70;99.90;;;;;;5015058;28;20176;-67
2022/10/09 00:15:45;;;;;;;69.28;60.33;;;13.80;99.90;;;;;;4997530;28;20088;-67
2022/10/09 00:18:17;;;;;;;73.88;61.38;;;13.70;99.90;;;;;;5019594;28;20468;-68
2022/10/09 00:20:44;;;;;;;67.47;57.88;;;13.70;99.90;;;;;;5015040;28;20044;-67
2022/10/09 00:23:16;;;;;;;72.93;60.85;;;13.80;99.90;;;;;;5014516;28;20045;-67
2022/10/09 00:25:57;;;;;;;68.63;57.60;;;13.80;99.90;;;;;;5016069;28;20030;-67
2022/10/09 00:28:25;;;;;;;68.25;58.92;;;13.80;99.90;;;;;;5014650;28;20674;-67
2022/10/09 00:30:52;;;;;;;70.68;60.20;;;13.70;99.90;;;;;;5015359;28;20072;-67
2022/10/09 00:33:19;;;;;;;68.82;57.28;;;13.70;99.90;;;;;;4998410;28;20495;-67
2022/10/09 00:35:49;;;;;;;75.72;60.15;;;13.70;99.90;;;;;;5016838;28;20014;-66
2022/10/09 00:38:16;;;;;;;69.20;61.75;;;13.70;99.90;;;;;;5014353;28;20026;-67
2022/10/09 00:40:42;;;;;;;65.95;57.30;;;13.60;99.90;;;;;;5018718;28;20018;-67
2022/10/09 00:43:16;;;;;;;71.10;60.83;;;13.60;99.90;;;;;;5024403;28;20471;-67
2022/10/09 00:45:54;;;;;;;77.88;60.50;;;13.60;99.90;;;;;;5026476;28;20084;-67
2022/10/09 00:48:21;;;;;;;67.72;60.42;;;13.60;99.90;;;;;;5012039;28;20044;-67
2022/10/09 00:50:53;;;;;;;69.07;60.53;;;13.60;99.90;;;;;;5016650;28;20036;-68
2022/10/09 00:53:21;;;;;;;66.22;56.78;;;13.70;99.90;;;;;;5011844;28;20037;-67
2022/10/09 00:55:49;;;;;;;75.53;59.00;;;13.70;99.90;;;;;;5017361;28;20391;-68
2022/10/09 00:58:17;;;;;;;72.90;59.05;;;13.70;99.90;;;;;;5020500;28;20021;-67
2022/10/09 01:00:44;;;;;;;65.75;57.67;;;13.70;99.90;;;;;;5034154;28;20424;-67
2022/10/09 01:03:10;;;;;;;67.28;56.78;;;13.70;99.90;;;;;;5016941;28;20097;-68
2022/10/09 01:05:56;;;;;;;66.60;58.90;;;13.70;99.90;;;;;;5022399;28;20022;-66
2022/10/09 01:08:37;;;;;;;65.72;57.47;;;13.70;99.90;;;;;;5017590;28;20018;-67
2022/10/09 01:11:22;;;;;;;64.57;57.35;;;13.70;99.90;;;;;;5011684;28;20038;-68
2022/10/09 01:14:34;;;;;;;68.47;58.22;;;13.70;99.90;;;;;;5017211;28;20519;-67
2022/10/09 01:17:11;;;;;;;71.60;59.17;;;13.60;99.90;;;;;;4936581;29;20466;-67
2022/10/09 01:19:54;;;;;;;68.22;58.80;;;13.70;99.90;;;;;;4950128;28;20118;-67
2022/10/09 01:22:46;;;;;;;70.45;59.17;;;13.60;99.90;;;;;;4947544;29;20058;-67
2022/10/09 01:25:31;;;;;;;67.30;57.10;;;13.60;99.90;;;;;;4932450;29;20032;-67
2022/10/09 01:27:58;;;;;;;65.82;54.60;;;13.60;99.90;;;;;;4935594;29;20063;-67
2022/10/09 01:30:24;;;;;;;62.75;55.95;;;13.70;99.90;;;;;;4934845;29;20110;-68
2022/10/09 01:32:52;;;;;;;63.42;56.55;;;13.70;99.90;;;;;;4934839;29;20441;-67
2022/10/09 01:35:20;;;;;;;61.42;54.75;;;13.70;99.90;;;;;;4939475;29;20040;-66
2022/10/09 01:37:50;;;;;;;69.85;57.40;;;13.60;99.90;;;;;;4938082;29;20467;-66
2022/10/09 01:40:17;;;;;;;63.28;54.90;;;13.70;99.90;;;;;;4935567;29;20617;-67
2022/10/09 01:42:45;;;;;;;64.75;56.65;;;13.70;99.90;;;;;;4935538;29;20027;-66
2022/10/09 01:45:15;;;;;;;66.03;58.28;;;13.70;99.90;;;;;;4917989;29;20532;-68
2022/10/09 01:47:42;;;;;;;73.25;58.25;;;13.70;99.90;;;;;;4935542;29;20035;-67
2022/10/09 01:50:42;;;;;;;62.65;55.92;;;13.70;99.90;;;;;;4921831;29;20055;-67
2022/10/09 01:53:13;;;;;;;66.22;55.97;;;13.60;99.90;;;;;;4924707;29;20106;-68
2022/10/09 01:55:53;;;;;;;65.32;56.55;;;13.60;99.90;;;;;;4954068;28;20561;-67
2022/10/09 01:58:44;;;;;;;63.17;56.08;;;13.60;99.90;;;;;;4954062;29;20051;-67
2022/10/09 02:01:18;;;;;;;62.20;54.53;;;13.60;99.90;;;;;;4955065;29;20488;-68
2022/10/09 02:03:48;;;;;;;67.55;58.25;;;13.60;99.90;;;;;;4938103;29;20035;-68
2022/10/09 02:06:16;;;;;;;69.85;57.83;;;13.60;99.90;;;;;;4954376;29;20031;-68
2022/10/09 02:08:46;;;;;;;69.30;55.00;;;13.60;99.90;;;;;;4954936;29;20019;-68
2022/10/09 02:11:16;;;;;;;65.22;54.30;;;13.60;99.90;;;;;;4953083;29;20125;-67
2022/10/09 02:13:46;;;;;;;68.00;55.35;;;13.50;99.90;;;;;;4951603;29;20073;-67
2022/10/09 02:16:34;;;;;;;61.90;52.85;;;13.60;99.90;;;;;;4963925;28;20050;-68
2022/10/09 02:19:07;;;;;;;62.38;53.58;;;13.50;99.90;;;;;;4953056;28;20030;-67
2022/10/09 02:21:42;;;;;;;;;;;13.50;99.90;;;;;;4935893;29;20047;-67
2022/10/09 02:24:12;;;;;;;65.00;51.67;;;13.50;99.90;;;;;;4953638;29;19926;-66
2022/10/09 02:26:39;;;;;;;66.43;55.70;;;13.50;99.90;;;;;;4932272;29;20131;-68
2022/10/09 02:29:05;;;;;;;69.40;55.65;;;13.50;99.90;;;;;;4956914;28;20118;-68
2022/10/09 02:31:36;;;;;;;65.90;55.10;;;13.50;99.90;;;;;;5014845;28;20033;-67
2022/10/09 02:34:11;;;;;;;66.32;55.28;;;13.50;99.90;;;;;;5015193;28;20471;-67
2022/10/09 02:36:38;;;;;;;63.78;54.50;;;13.50;99.90;;;;;;4985936;28;20042;-66
2022/10/09 02:39:06;;;;;;;65.38;54.88;;;13.60;99.90;;;;;;5019352;28;20411;-67
2022/10/09 02:41:33;;;;;;;57.97;50.47;;;13.60;99.90;;;;;;5017360;28;20030;-67
2022/10/09 02:44:01;;;;;;;59.65;51.30;;;13.70;99.90;;;;;;5000170;28;20014;-67
2022/10/09 02:46:31;;;;;;;58.25;51.67;;;13.70;99.90;;;;;;5018248;28;20042;-67
2022/10/09 02:48:57;;;;;;;61.85;51.03;;;13.70;99.90;;;;;;5018208;28;20033;-68
2022/10/09 02:51:24;;;;;;;61.50;51.60;;;13.70;99.90;;;;;;5016518;28;20064;-68
2022/10/09 02:53:52;;;;;;;65.10;50.35;;;13.70;99.90;;;;;;5017418;28;20508;-67
2022/10/09 02:56:20;;;;;;;56.78;50.58;;;13.70;99.90;;;;;;5017629;28;20352;-67
2022/10/09 02:58:47;;;;;;;60.63;52.50;;;13.70;99.90;;;;;;4999702;28;20057;-67
2022/10/09 03:01:14;;;;;;;58.67;51.78;;;13.70;99.90;;;;;;5017275;28;20022;-68
2022/10/09 03:03:40;;;;;;;57.50;51.25;;;13.70;99.90;;;;;;5016251;28;20080;-68
2022/10/09 03:06:10;;;;;;;61.88;51.70;;;13.70;99.90;;;;;;5016192;28;20077;-67
2022/10/09 03:08:40;;;;;;;62.53;52.03;;;13.70;99.90;;;;;;5015722;28;20029;-68
2022/10/09 03:11:06;;;;;;;63.05;51.85;;;13.70;99.90;;;;;;5016551;28;20494;-67
2022/10/09 03:13:33;;;;;;;58.95;50.88;;;13.70;99.90;;;;;;5016103;28;20093;-66
2022/10/09 03:16:07;;;;;;;61.13;51.80;;;13.70;99.90;;;;;;5009218;28;20033;-67
2022/10/09 03:18:34;;;;;;;61.42;52.33;;;13.60;99.90;;;;;;5016330;28;20061;-67
2022/10/09 03:21:03;;;;;;;57.65;50.85;;;13.60;99.90;;;;;;5016583;28;20418;-68
2022/10/09 03:23:30;;;;;;;59.42;50.85;;;13.60;99.90;;;;;;5031966;28;20107;-68
2022/10/09 03:25:58;;;;;;;59.80;51.22;;;13.60;99.90;;;;;;5035788;28;20112;-69
2022/10/09 03:28:25;;;;;;;59.35;50.72;;;13.50;99.90;;;;;;5034331;28;20035;-67
2022/10/09 03:30:51;;;;;;;63.22;52.35;;;13.50;99.90;;;;;;5014931;28;20053;-67
2022/10/09 03:33:18;;;;;;;59.75;52.40;;;13.50;99.90;;;;;;5036423;28;20038;-67
2022/10/09 03:35:48;;;;;;;59.08;49.95;;;13.50;99.90;;;;;;5035376;28;20097;-66
2022/10/09 03:38:15;;;;;;;71.30;50.40;;;13.50;99.90;;;;;;5015692;28;20467;-68
2022/10/09 03:40:41;;;;;;;76.30;52.13;;;13.40;99.90;;;;;;5030444;28;20665;-67
2022/10/09 03:43:07;;;;;;;62.70;49.42;;;13.40;99.90;;;;;;5015409;28;20034;-67
2022/10/09 03:45:34;;;;;;;60.60;52.65;;;13.50;99.90;;;;;;5033061;28;20037;-67
2022/10/09 03:48:00;;;;;;;57.55;50.00;;;13.40;99.90;;;;;;5033290;28;20076;-67
2022/10/09 03:50:26;;;;;;;55.83;49.25;;;13.40;99.90;;;;;;5032593;28;20602;-67
2022/10/09 03:52:52;;;;;;;59.70;50.20;;;13.40;99.90;;;;;;5015360;28;20033;-67
2022/10/09 03:55:17;;;;;;;58.42;49.08;;;13.40;99.90;;;;;;5033075;28;20048;-67
2022/10/09 03:57:43;;;;;;;59.33;49.20;;;13.30;99.90;;;;;;5033240;28;20071;-67
2022/10/09 04:00:10;;;;;;;61.83;51.55;;;13.40;99.90;;;;;;5033186;28;20024;-66
2022/10/09 04:02:35;;;;;;;60.10;50.65;;;13.40;99.90;;;;;;5031632;28;20048;-67
2022/10/09 04:05:01;;;;;;;56.33;48.55;;;13.30;99.90;;;;;;5032787;28;20018;-67
2022/10/09 04:07:27;;;;;;;55.03;47.95;;;13.30;99.90;;;;;;5032405;28;20576;-67
2022/10/09 04:09:54;;;;;;;57.70;50.35;;;13.30;99.90;;;;;;5032502;28;20096;-67
2022/10/09 04:12:20;;;;;;;60.00;50.33;;;13.30;99.90;;;;;;5014287;28;20105;-67
2022/10/09 04:14:47;;;;;;;56.88;49.38;;;13.30;99.90;;;;;;5032550;28;20352;-67
2022/10/09 04:17:12;;;;;;;57.17;50.95;;;13.30;99.90;;;;;;5033277;28;20363;-68
2022/10/09 04:19:38;;;;;;;56.88;49.10;;;13.30;99.90;;;;;;5032480;28;20021;-67
2022/10/09 04:22:04;;;;;;;59.17;49.90;;;13.30;99.90;;;;;;5031568;28;20049;-68
2022/10/09 04:24:30;;;;;;;59.97;51.58;;;13.30;99.90;;;;;;5031614;28;20379;-67
2022/10/09 04:26:56;;;;;;;61.28;51.80;;;13.30;99.90;;;;;;5032276;28;20063;-67
2022/10/09 04:29:22;;;;;;;60.35;50.78;;;13.30;99.90;;;;;;5030555;28;20372;-67
2022/10/09 04:31:47;;;;;;;59.25;52.30;;;13.30;99.90;;;;;;5032728;28;20589;-67
2022/10/09 04:34:14;;;;;;;60.55;49.55;;;13.30;99.90;;;;;;5032072;28;20017;-67
2022/10/09 04:36:40;;;;;;;65.90;50.75;;;13.20;99.90;;;;;;5032477;28;20071;-67
2022/10/09 04:39:06;;;;;;;58.33;49.30;;;13.30;99.90;;;;;;5031305;28;20104;-67
2022/10/09 04:41:32;;;;;;;58.85;48.92;;;13.30;99.90;;;;;;5032151;28;20695;-67
2022/10/09 04:43:59;;;;;;;56.58;46.28;;;13.30;99.90;;;;;;5032138;28;20042;-67
2022/10/09 04:46:24;;;;;;;56.20;49.90;;;13.30;99.90;;;;;;5032608;28;20482;-67
2022/10/09 04:48:50;;;;;;;55.13;46.72;;;13.30;99.90;;;;;;5030418;28;20044;-67
2022/10/09 04:51:17;;;;;;;61.20;48.88;;;13.40;99.90;;;;;;5018041;28;20040;-67
2022/10/09 04:53:44;;;;;;;60.13;48.45;;;13.40;99.90;;;;;;5031154;28;20029;-67
2022/10/09 04:56:16;;;;;;;54.67;45.75;;;13.40;99.90;;;;;;5013756;28;20044;-67
2022/10/09 04:58:43;;;;;;;58.15;46.30;;;13.40;99.90;;;;;;5030446;28;20080;-67
2022/10/09 05:01:17;;;;;;;54.63;47.13;;;13.50;99.90;;;;;;4997529;28;20021;-68
2022/10/09 05:03:43;;;;;;;54.42;45.45;;;13.50;99.90;;;;;;5031133;28;20049;-67
2022/10/09 05:06:11;;;;;;;57.85;46.97;;;13.50;99.90;;;;;;5013756;28;20029;-67
2022/10/09 05:08:38;;;;;;;56.03;47.38;;;13.60;99.90;;;;;;5031961;28;20033;-67
2022/10/09 05:11:06;;;;;;;54.17;44.58;;;13.80;99.90;;;;;;5031945;28;20021;-67
2022/10/09 05:13:38;;;;;;;52.55;44.15;;;13.80;99.90;;;;;;5030001;28;20029;-67
2022/10/09 05:16:06;;;;;;;53.22;46.97;;;13.80;99.90;;;;;;5031436;28;20056;-67
2022/10/09 05:18:33;;;;;;;55.28;44.50;;;13.80;99.90;;;;;;5031479;28;20049;-67
2022/10/09 05:21:02;;;;;;;51.88;45.75;;;13.90;99.90;;;;;;5031577;28;20104;-67
2022/10/09 05:23:28;;;;;;;48.60;41.53;;;14.00;99.90;;;;;;5030135;28;20041;-67
2022/10/09 05:25:59;;;;;;;45.67;39.55;;;14.10;99.90;;;;;;5031201;28;20429;-67
2022/10/09 05:28:26;;;;;;;44.78;39.40;;;14.20;99.90;;;;;;5031054;28;20486;-68
2022/10/09 05:30:52;;;;;;;45.63;38.30;;;14.20;99.90;;;;;;5028225;28;20036;-67
2022/10/09 05:33:19;;;;;;;47.20;39.00;;;14.20;99.90;;;;;;5027870;28;20041;-67
2022/10/09 05:35:56;;;;;;;47.03;39.22;;;14.10;99.90;;;;;;5027016;28;20017;-67
2022/10/09 05:38:22;;;;;;;48.50;39.42;;;14.10;99.90;;;;;;5028030;28;20305;-67
2022/10/09 05:40:55;;;;;;;48.35;41.03;;;14.10;99.90;;;;;;5031367;28;20018;-67
2022/10/09 05:43:26;;;;;;;45.55;38.97;;;14.20;99.90;;;;;;5025025;28;20033;-67
2022/10/09 05:45:53;;;;;;;43.40;38.67;;;14.30;99.90;;;;;;5028002;28;20029;-67
2022/10/09 05:48:20;;;;;;;42.03;37.42;;;14.30;99.90;;;;;;5031835;28;20028;-68
2022/10/09 05:50:46;;;;;;;42.20;36.15;;;14.30;99.90;;;;;;5031434;28;20045;-67
2022/10/09 05:53:12;;;;;;;42.72;35.83;;;14.40;99.90;;;;;;5029179;28;20034;-67
2022/10/09 05:55:39;;;;;;;40.35;34.75;;;14.40;99.90;;;;;;5023491;28;20030;-67
2022/10/09 05:58:05;;;;;;;43.28;37.08;;;14.50;99.90;;;;;;5025471;28;20502;-67
2022/10/09 06:00:31;;;;;;;43.10;34.40;;;14.50;99.90;;;;;;5013171;28;20479;-67
2022/10/09 06:02:57;;;;;;;39.85;33.67;;;14.50;99.90;;;;;;5013263;28;20029;-68
2022/10/09 06:05:23;;;;;;;43.28;36.03;;;14.50;99.90;;;;;;5030237;28;20071;-67
2022/10/09 06:07:49;;;;;;;41.58;34.63;;;14.50;99.90;;;;;;5031145;28;20021;-68
2022/10/09 06:10:14;;;;;;;45.28;35.83;;;14.50;99.90;;;;;;5023436;28;20026;-68
2022/10/09 06:12:41;;;;;;;43.58;35.63;;;14.60;99.90;;;;;;5029710;28;20044;-67
2022/10/09 06:15:07;;;;;;;38.92;34.63;;;14.60;99.90;;;;;;5032843;28;20025;-68
2022/10/09 06:17:33;;;;;;;39.75;35.25;;;14.60;99.90;;;;;;5034375;28;20017;-68
2022/10/09 06:20:02;;;;;;;39.47;33.92;;;14.60;99.90;;;;;;5034917;28;20017;-68
2022/10/09 06:22:27;;;;;;;43.00;35.97;;;14.70;99.90;;;;;;5035101;28;20124;-67
2022/10/09 06:24:53;;;;;;;40.42;34.78;;;14.70;99.90;;;;;;5016030;28;20455;-67
2022/10/09 06:27:19;;;;;;;38.67;32.28;;;14.80;99.90;;;;;;5034668;28;20027;-68
2022/10/09 06:29:45;;;;;;;44.00;34.47;;;14.80;99.90;;;;;;5034446;28;20100;-67
2022/10/09 06:32:11;;;;;;;39.65;33.53;;;15.10;99.90;;;;;;5017292;28;20483;-68
2022/10/09 06:34:37;;;;;;;38.25;31.60;;;15.40;99.90;;;;;;5034564;28;20055;-68
2022/10/09 06:37:03;;;;;;;37.10;29.70;;;15.50;99.90;;;;;;5033300;28;20021;-67
2022/10/09 06:39:29;;;;;;;34.00;29.45;;;15.70;99.90;;;;;;5034701;28;20028;-68
2022/10/09 06:41:54;;;;;;;33.97;28.17;;;15.80;99.90;;;;;;5034831;28;20020;-67
2022/10/09 06:44:44;;;;;;;31.42;27.58;;;15.90;99.90;;;;;;5033598;28;20026;-68
2022/10/09 06:47:10;;;;;;;33.20;24.92;;;15.80;99.90;;;;;;5031860;28;20108;-69
2022/10/09 06:49:36;;;;;;;35.45;27.00;;;15.80;99.90;;;;;;5027906;28;20142;-68
2022/10/09 06:52:02;;;;;;;34.88;27.80;;;15.80;99.90;;;;;;5031228;28;20033;-68
2022/10/09 06:54:28;;;;;;;34.05;26.42;;;15.80;99.90;;;;;;5033859;28;20029;-67
2022/10/09 06:56:54;;;;;;;34.38;27.92;;;15.80;99.90;;;;;;5032231;28;20099;-68
2022/10/09 06:59:20;;;;;;;32.10;28.60;;;15.80;99.90;;;;;;5031660;28;20021;-67
2022/10/09 07:01:46;;;;;;;32.97;27.10;;;16.00;99.90;;;;;;5012414;28;20040;-68
2022/10/09 07:04:13;;;;;;;33.63;27.10;;;16.00;99.90;;;;;;5028753;28;20018;-68
2022/10/09 07:06:42;;;;;;;33.78;25.85;;;15.90;99.90;;;;;;5030211;28;20595;-67
2022/10/09 07:09:10;;;;;;;31.08;26.50;;;15.90;99.90;;;;;;5032140;28;20032;-68
2022/10/09 07:11:47;;;;;;;33.38;26.35;;;15.80;99.90;;;;;;4999336;28;20037;-68
2022/10/09 07:14:17;;;;;;;30.38;26.20;;;15.80;99.90;;;;;;5015337;28;20025;-68
2022/10/09 07:16:45;;;;;;;31.20;25.25;;;15.70;99.90;;;;;;5032359;28;20472;-67
2022/10/09 07:19:13;;;;;;;30.08;24.98;;;15.80;99.90;;;;;;5030023;28;20021;-67
2022/10/09 07:21:41;;;;;;;29.20;25.25;;;15.80;99.90;;;;;;5020676;28;20029;-68
2022/10/09 07:24:08;;;;;;;35.28;26.60;;;15.70;99.90;;;;;;5032804;28;20652;-68
2022/10/09 07:26:36;;;;;;;31.08;25.90;;;15.80;99.90;;;;;;5033551;28;20099;-67
2022/10/09 07:29:04;;;;;;;36.50;26.55;;;15.80;99.90;;;;;;5027171;28;20018;-67
2022/10/09 07:31:30;;;;;;;37.13;27.20;;;16.00;99.90;;;;;;5027856;28;20033;-68
2022/10/09 07:33:57;;;;;;;32.95;24.70;;;16.20;99.90;;;;;;5033066;28;20033;-67
2022/10/09 07:36:23;;;;;;;34.17;25.60;;;16.40;99.90;;;;;;5033188;28;20632;-68
2022/10/09 07:38:56;;;;;;;31.33;23.85;;;16.60;99.90;;;;;;5031691;28;20033;-67
2022/10/09 07:41:24;;;;;;;27.63;23.95;;;16.60;99.90;;;;;;5033124;28;20051;-68
2022/10/09 07:43:50;;;;;;;32.58;23.35;;;16.60;99.90;;;;;;5031064;28;20029;-68
2022/10/09 07:46:18;;;;;;;29.95;23.92;;;16.60;99.90;;;;;;5032595;28;20353;-68
2022/10/09 07:48:44;;;;;;;27.70;21.48;;;16.70;99.90;;;;;;5033655;28;20471;-67
2022/10/09 07:51:15;;;;;;;29.88;21.80;;;16.90;99.90;;;;;;5032178;28;20037;-68
2022/10/09 07:53:41;;;;;;;26.52;19.75;;;17.00;99.90;;;;;;5034874;28;20028;-68
2022/10/09 07:56:19;;;;;;;26.90;20.95;;;16.90;99.90;;;;;;5032555;28;20029;-69
2022/10/09 07:58:56;;;;;;;28.92;21.15;;;16.90;99.90;;;;;;5032481;28;20029;-68
2022/10/09 08:01:23;;;;;;;28.92;22.58;;;16.90;99.90;;;;;;5032062;28;20034;-67
2022/10/09 08:03:51;;;;;;;29.15;21.45;;;17.00;99.90;;;;;;5029834;28;20091;-68
2022/10/09 08:06:18;;;;;;;30.02;22.00;;;17.10;99.90;;;;;;5022892;28;20029;-67
2022/10/09 08:08:47;;;;;;;25.20;21.30;;;17.40;99.90;;;;;;5024562;28;20029;-68
2022/10/09 08:11:15;;;;;;;32.03;21.88;;;17.30;99.90;;;;;;5009548;28;20022;-68
2022/10/09 08:13:42;;;;;;;26.70;22.15;;;17.60;99.90;;;;;;5021835;28;20029;-67
2022/10/09 08:16:09;;;;;;;31.52;22.25;;;17.50;99.90;;;;;;5022712;28;20022;-68
2022/10/09 08:18:36;;;;;;;30.65;22.73;;;17.50;99.90;;;;;;4997490;28;20458;-69
2022/10/09 08:21:07;;;;;;;27.38;21.10;;;17.70;99.90;;;;;;5002561;28;20112;-68
2022/10/09 08:23:34;;;;;;;24.70;20.83;;;17.70;99.90;;;;;;5014754;28;20476;-69
2022/10/09 08:26:00;;;;;;;24.15;19.52;;;17.70;99.90;;;;;;5012999;28;20380;-68
2022/10/09 08:28:26;;;;;;;28.67;21.00;;;17.60;99.90;;;;;;5014197;28;20056;-69
2022/10/09 08:30:52;;;;;;;27.35;21.00;;;17.60;99.90;;;;;;4996686;28;20084;-68
2022/10/09 08:33:20;;;;;;;28.50;21.42;;;17.50;99.90;;;;;;5009020;28;20455;-68
2022/10/09 08:35:48;;;;;;;26.58;21.40;;;17.40;99.90;;;;;;5028331;28;20026;-69
2022/10/09 08:38:15;;;;;;;27.98;20.80;;;17.50;99.90;;;;;;5017369;28;20033;-69
2022/10/09 08:40:54;;;;;;;25.40;20.30;;;17.60;99.90;;;;;;5010156;28;20026;-69
2022/10/09 08:43:34;;;;;;;29.52;17.92;;;17.60;99.90;;;;;;5010511;28;20057;-69
2022/10/09 08:46:05;;;;;;;25.35;19.38;;;17.80;99.90;;;;;;4977399;28;20114;-68
2022/10/09 08:48:38;;;;;;;26.67;19.38;;;17.70;99.90;;;;;;5011064;28;20404;-69
2022/10/09 08:51:09;;;;;;;27.63;19.30;;;17.80;99.90;;;;;;5011664;28;20022;-69
2022/10/09 08:53:43;;;;;;;24.13;18.92;;;17.90;99.90;;;;;;5011333;28;20609;-69
2022/10/09 08:56:13;;;;;;;23.63;18.63;;;18.00;99.90;;;;;;5013055;28;20026;-69
2022/10/09 08:58:41;;;;;;;22.60;18.73;;;18.00;99.90;;;;;;5019748;28;20051;-69
2022/10/09 09:01:21;;;;;;;26.70;19.55;;;18.20;99.90;;;;;;5029373;28;20072;-70
2022/10/09 09:03:58;;;;;;;26.40;19.88;;;18.00;99.90;;;;;;5031564;28;20038;-69
2022/10/09 09:06:54;;;;;;;23.15;18.08;;;18.00;99.90;;;;;;5025886;28;20079;-71
2022/10/09 09:09:29;;;;;;;47.70;28.02;;;18.20;99.90;;;;;;5012925;28;20395;-72
2022/10/09 09:12:27;;;;;;;25.20;17.48;;;18.20;99.90;;;;;;5028384;28;20061;-70
2022/10/09 09:20:52;;;;;;;28.77;17.67;;;18.20;99.90;;;;;;5109179;27;20404;-71
2022/10/09 09:23:25;;;;;;;27.15;20.80;;;18.20;99.90;;;;;;5108332;28;20415;-70
2022/10/09 09:25:51;;;;;;;23.88;18.02;;;18.30;99.90;;;;;;5109307;28;20077;-70
2022/10/09 09:28:26;;;;;;;38.10;24.50;;;18.30;99.90;;;;;;5109197;28;20423;-70
2022/10/09 09:31:13;;;;;;;22.38;16.95;;;18.40;99.90;;;;;;5109735;28;20027;-68
2022/10/09 09:33:42;;;;;;;30.90;19.42;;;18.40;99.90;;;;;;5109839;28;20035;-69
2022/10/09 09:36:23;;;;;;;24.52;17.63;;;18.40;99.90;;;;;;5109346;28;20031;-69
2022/10/09 09:38:50;;;;;;;23.85;17.52;;;18.50;99.90;;;;;;5109370;28;20028;-70
2022/10/09 09:41:17;;;;;;;22.65;16.63;;;18.50;99.90;;;;;;5109360;28;20024;-71
2022/10/09 09:43:43;;;;;;;22.42;16.58;;;18.50;99.90;;;;;;5109418;28;20111;-68
2022/10/09 09:46:16;;;;;;;21.40;16.88;;;18.40;99.90;;;;;;5109174;28;20012;-72
2022/10/09 09:48:47;;;;;;;21.85;15.95;;;18.50;99.90;;;;;;5108852;28;20032;-67
2022/10/09 09:51:26;;;;;;;20.05;15.27;;;18.50;99.90;;;;;;5108690;28;20102;-69
2022/10/09 09:54:05;;;;;;;19.70;14.55;;;18.40;99.90;;;;;;5106686;28;20031;-69
2022/10/09 09:56:41;;;;;;;20.73;15.00;;;18.40;99.90;;;;;;5109011;28;20035;-69
2022/10/09 09:59:24;;;;;;;21.50;14.15;;;18.40;99.90;;;;;;5108071;28;20027;-71
2022/10/09 10:01:59;;;;;;;29.90;14.13;;;18.50;99.90;;;;;;5108853;28;20591;-69
2022/10/09 10:04:27;;;;;;;19.75;14.95;;;18.60;99.90;;;;;;5108773;28;20119;-67
2022/10/09 10:06:53;;;;;;;19.48;14.95;;;18.60;99.90;;;;;;5109027;28;20020;-68
2022/10/09 10:09:19;;;;;;;20.13;15.05;;;18.60;99.90;;;;;;5103990;28;20039;-68
2022/10/09 10:11:53;;;;;;;27.55;15.30;;;18.70;99.90;;;;;;5108423;28;20076;-68
2022/10/09 10:14:20;;;;;;;20.40;13.63;;;18.80;99.90;;;;;;5107404;28;20019;-68
2022/10/09 10:16:50;;;;;;;25.15;15.05;;;18.90;99.90;;;;;;5102283;28;20020;-68
2022/10/09 10:19:38;;;;;;;19.75;13.55;;;18.90;99.90;;;;;;5076560;28;20072;-70
2022/10/09 10:22:31;;;;;;;25.23;15.07;;;18.90;99.90;;;;;;5087816;28;20543;-70
2022/10/09 10:25:44;;;;;;;18.70;12.60;;;19.00;99.90;;;;;;5087866;28;20126;-68
2022/10/09 10:28:32;;;;;;;20.35;14.32;;;19.20;99.90;;;;;;5086366;28;20036;-71
2022/10/09 10:31:05;;;;;;;21.25;15.13;;;19.30;99.90;;;;;;5073186;28;20131;-70
2022/10/09 10:33:35;;;;;;;16.95;13.65;;;19.50;99.90;;;;;;5091825;28;20039;-66
2022/10/09 10:36:04;;;;;;;30.00;15.55;;;19.60;99.90;;;;;;5089242;28;20063;-70
2022/10/09 10:38:48;;;;;;;20.42;13.70;;;19.90;99.90;;;;;;5084266;28;20115;-70
2022/10/09 10:41:41;;;;;;;20.40;12.75;;;20.10;99.90;;;;;;5055443;28;20115;-70
2022/10/09 10:44:22;;;;;;;19.88;12.35;;;20.10;99.90;;;;;;5038661;28;20058;-71
2022/10/09 10:47:16;;;;;;;19.98;12.23;;;20.20;99.90;;;;;;5058275;28;20162;-71
2022/10/09 10:49:44;;;;;;;16.42;10.88;;;20.50;99.90;;;;;;5090617;28;20125;-69
2022/10/09 10:52:40;;;;;;;16.73;11.68;;;20.70;99.90;;;;;;5071658;28;20058;-69
2022/10/09 10:55:30;;;;;;;15.27;10.65;;;20.80;99.90;;;;;;5087326;28;20039;-69
2022/10/09 10:58:18;;;;;;;19.13;11.57;;;20.60;99.90;;;;;;5077531;28;20369;-70
2022/10/09 11:01:01;;;;;;;19.48;12.05;;;20.60;99.90;;;;;;5076059;28;20025;-70
2022/10/09 11:03:47;;;;;;;15.32;10.90;;;20.80;99.90;;;;;;5072834;28;20555;-68
2022/10/09 11:06:19;;;;;;;15.90;10.88;;;20.60;99.90;;;;;;5074623;28;20470;-70
2022/10/09 11:09:17;;;;;;;17.83;11.57;;;20.70;99.90;;;;;;5074199;28;20033;-69
2022/10/09 11:11:54;;;;;;;20.40;10.73;;;20.80;99.90;;;;;;5078825;28;20111;-70
2022/10/09 11:14:38;;;;;;;17.92;10.15;;;21.00;99.90;;;;;;5082956;28;20027;-70
2022/10/09 11:17:37;;;;;;;15.98;10.88;;;21.10;99.90;;;;;;5071017;28;20023;-69
2022/10/09 11:20:49;;;;;;;16.98;12.07;;;21.20;99.90;;;;;;5090151;28;20055;-71
2022/10/09 11:23:48;;;;;;;16.55;11.50;;;21.50;99.90;;;;;;5087210;28;20017;-70
2022/10/09 11:26:28;;;;;;;15.85;11.20;;;21.40;99.90;;;;;;5085404;28;20089;-69
2022/10/09 11:29:20;;;;;;;15.43;10.48;;;21.60;99.90;;;;;;5093135;28;20051;-70
2022/10/09 11:32:33;;;;;;;15.75;10.18;;;21.40;99.90;;;;;;5087366;28;20028;-71
2022/10/09 11:35:11;;;;;;;14.30;10.15;;;21.50;99.90;;;;;;5073562;28;20032;-70
2022/10/09 11:37:40;;;;;;;17.73;10.50;;;21.50;99.90;;;;;;5081423;28;20032;-67
2022/10/09 11:40:41;;;;;;;15.80;9.93;;;21.60;99.90;;;;;;5089148;28;20039;-70
2022/10/09 11:43:43;;;;;;;18.20;11.35;;;21.60;99.90;;;;;;5069761;28;20493;-70
2022/10/09 11:46:26;;;;;;;16.42;10.98;;;21.60;99.90;;;;;;5087147;28;20062;-70
2022/10/09 11:49:16;;;;;;;20.08;10.10;;;21.50;99.90;;;;;;5085349;28;20481;-69
2022/10/09 11:51:42;;;;;;;14.88;10.40;;;21.70;99.90;;;;;;5093925;28;20051;-68
2022/10/09 11:54:14;;;;;;;19.67;9.85;;;21.70;99.90;;;;;;5080928;28;20099;-70
2022/10/09 11:56:55;;;;;;;15.60;8.88;;;21.80;99.90;;;;;;5078512;28;20028;-68
2022/10/09 11:59:27;;;;;;;18.45;8.85;;;21.80;99.90;;;;;;5072971;28;20035;-67
2022/10/09 12:01:53;;;;;;;17.23;8.15;;;21.80;99.90;;;;;;5073067;28;20436;-68
2022/10/09 12:04:33;;;;;;;14.00;8.43;;;21.70;99.90;;;;;;5087820;28;20020;-70
2022/10/09 12:07:03;;;;;;;15.30;10.07;;;21.60;99.90;;;;;;5072293;28;20040;-67
2022/10/09 12:09:43;;;;;;;17.35;9.77;;;21.40;99.90;;;;;;5090285;28;20036;-70
2022/10/09 12:12:15;;;;;;;18.95;9.55;;;21.40;99.90;;;;;;5069210;28;20082;-67
2022/10/09 12:14:45;;;;;;;13.85;9.95;;;21.30;99.90;;;;;;5076554;28;20020;-66
2022/10/09 12:17:23;;;;;;;15.95;9.85;;;21.00;99.90;;;;;;5084957;28;20508;-67
2022/10/09 12:20:00;;;;;;;18.02;10.57;;;20.90;99.90;;;;;;5071892;28;20139;-71
2022/10/09 12:22:43;;;;;;;16.63;10.45;;;20.80;99.90;;;;;;5075463;28;20025;-70
2022/10/09 12:25:29;;;;;;;18.08;9.30;;;20.90;99.90;;;;;;5069404;28;20135;-67
2022/10/09 12:27:57;;;;;;;13.45;8.30;;;20.90;99.90;;;;;;5072987;28;20440;-66
2022/10/09 12:30:34;;;;;;;19.25;9.68;;;20.90;99.90;;;;;;5080568;28;20028;-71
2022/10/09 12:33:24;;;;;;;16.02;8.70;;;20.90;99.90;;;;;;5063323;28;20027;-71
2022/10/09 12:36:13;;;;;;;13.65;9.07;;;21.00;99.90;;;;;;5071252;28;20024;-70
2022/10/09 12:38:40;;;;;;;15.85;9.10;;;20.90;99.90;;;;;;5068148;28;20040;-67
2022/10/09 12:41:13;;;;;;;44.30;25.05;;;21.00;99.90;;;;;;5080811;28;20020;-66
2022/10/09 12:43:44;;;;;;;32.45;18.52;;;21.00;99.90;;;;;;5081980;28;20421;-70
2022/10/09 12:46:10;;;;;;;50.22;26.40;;;21.00;99.90;;;;;;5080405;28;20044;-68
2022/10/09 12:48:41;;;;;;;25.77;13.48;;;21.10;99.90;;;;;;5072496;28;20453;-69
2022/10/09 12:51:17;;;;;;;85.47;46.25;;;21.10;99.90;;;;;;5091547;28;20090;-70
2022/10/09 12:53:50;;;;;;;69.22;43.08;;;21.10;99.90;;;;;;5086586;28;20078;-68
2022/10/09 12:56:31;;;;;;;33.63;23.38;;;21.00;99.90;;;;;;5067044;28;20029;-71
2022/10/09 12:59:00;;;;;;;77.28;53.85;;;21.10;99.90;;;;;;5072142;28;20390;-67